sensor_id;sensor_type;location;lat;lon;timestamp;P1;durP1;ratioP1;P2;durP2;ratioP2
68888;SDS011;55930;47.412;8.790;2023-04-03T00:02:26;4.77;;;4.13;;
68888;SDS011;55930;47.412;8.790;2023-04-03T00:05:47;4.47;;;4.00;;
68888;SDS011;55930;47.412;8.790;2023-04-03T00:09:08;9.43;;;5.00;;
68888;SDS011;55930;47.412;8.790;2023-04-03T00:12:29;6.07;;;4.80;;
68888;SDS011;55930;47.412;8.790;2023-04-03T00:15:49;5.57;;;4.60;;
68888;SDS011;55930;47.412;8.790;2023-04-03T00:19:12;4.85;;;4.35;;
68888;SDS011;55930;47.412;8.790;2023-04-03T00:22:32;4.40;;;4.00;;
68888;SDS011;55930;47.412;8.790;2023-04-03T00:25:53;4.73;;;4.23;;
68888;SDS011;55930;47.412;8.790;2023-04-03T00:29:14;5.90;;;4.57;;
68888;SDS011;55930;47.412;8.790;2023-04-03T00:32:34;3.50;;;3.00;;
68888;SDS011;55930;47.412;8.790;2023-04-03T00:35:55;5.33;;;4.60;;
68888;SDS011;55930;47.412;8.790;2023-04-03T00:39:15;5.40;;;4.73;;
68888;SDS011;55930;47.412;8.790;2023-04-03T00:42:36;5.80;;;4.70;;
68888;SDS011;55930;47.412;8.790;2023-04-03T00:45:58;6.15;;;5.55;;
68888;SDS011;55930;47.412;8.790;2023-04-03T00:49:19;5.80;;;5.20;;
68888;SDS011;55930;47.412;8.790;2023-04-03T00:52:40;6.05;;;4.80;;
68888;SDS011;55930;47.412;8.790;2023-04-03T00:56:01;5.10;;;4.30;;
68888;SDS011;55930;47.412;8.790;2023-04-03T00:59:24;5.10;;;4.53;;
68888;SDS011;55930;47.412;8.790;2023-04-03T01:02:47;4.82;;;3.55;;
68888;SDS011;55930;47.412;8.790;2023-04-03T01:06:07;4.20;;;3.80;;
68888;SDS011;55930;47.412;8.790;2023-04-03T01:09:28;5.40;;;4.47;;
68888;SDS011;55930;47.412;8.790;2023-04-03T01:12:51;5.13;;;3.97;;
68888;SDS011;55930;47.412;8.790;2023-04-03T01:16:12;5.43;;;4.38;;
68888;SDS011;55930;47.412;8.790;2023-04-03T01:19:32;4.13;;;3.53;;
68888;SDS011;55930;47.412;8.790;2023-04-03T01:26:44;7.65;;;4.43;;
68888;SDS011;55930;47.412;8.790;2023-04-03T01:30:05;5.87;;;5.27;;
68888;SDS011;55930;47.412;8.790;2023-04-03T01:33:26;7.00;;;6.30;;
68888;SDS011;55930;47.412;8.790;2023-04-03T01:36:47;5.90;;;5.30;;
68888;SDS011;55930;47.412;8.790;2023-04-03T01:40:07;8.20;;;7.03;;
68888;SDS011;55930;47.412;8.790;2023-04-03T01:43:28;7.93;;;6.17;;
68888;SDS011;55930;47.412;8.790;2023-04-03T01:46:48;4.97;;;4.47;;
68888;SDS011;55930;47.412;8.790;2023-04-03T01:50:09;7.40;;;6.70;;
68888;SDS011;55930;47.412;8.790;2023-04-03T01:53:30;7.90;;;7.13;;
68888;SDS011;55930;47.412;8.790;2023-04-03T01:56:50;6.90;;;6.20;;
68888;SDS011;55930;47.412;8.790;2023-04-03T02:00:11;6.63;;;5.70;;
68888;SDS011;55930;47.412;8.790;2023-04-03T02:03:32;8.18;;;4.82;;
68888;SDS011;55930;47.412;8.790;2023-04-03T02:06:52;8.13;;;6.93;;
68888;SDS011;55930;47.412;8.790;2023-04-03T02:10:13;6.57;;;5.97;;
68888;SDS011;55930;47.412;8.790;2023-04-03T02:13:33;6.13;;;5.53;;
68888;SDS011;55930;47.412;8.790;2023-04-03T02:16:54;5.27;;;4.77;;
68888;SDS011;55930;47.412;8.790;2023-04-03T02:20:14;7.23;;;5.30;;
68888;SDS011;55930;47.412;8.790;2023-04-03T02:23:35;5.23;;;4.47;;
68888;SDS011;55930;47.412;8.790;2023-04-03T02:26:56;6.15;;;5.00;;
68888;SDS011;55930;47.412;8.790;2023-04-03T02:30:17;4.53;;;4.10;;
68888;SDS011;55930;47.412;8.790;2023-04-03T02:33:37;4.93;;;4.30;;
68888;SDS011;55930;47.412;8.790;2023-04-03T02:36:58;5.73;;;5.23;;
68888;SDS011;55930;47.412;8.790;2023-04-03T02:40:18;5.57;;;5.00;;
68888;SDS011;55930;47.412;8.790;2023-04-03T02:43:39;6.50;;;5.37;;
68888;SDS011;55930;47.412;8.790;2023-04-03T02:47:00;5.90;;;5.30;;
68888;SDS011;55930;47.412;8.790;2023-04-03T02:50:20;6.70;;;5.90;;
68888;SDS011;55930;47.412;8.790;2023-04-03T02:53:40;6.47;;;5.77;;
68888;SDS011;55930;47.412;8.790;2023-04-03T02:57:01;6.50;;;5.87;;
68888;SDS011;55930;47.412;8.790;2023-04-03T03:00:21;7.10;;;6.40;;
68888;SDS011;55930;47.412;8.790;2023-04-03T03:03:42;6.90;;;6.03;;
68888;SDS011;55930;47.412;8.790;2023-04-03T03:07:02;6.30;;;5.33;;
68888;SDS011;55930;47.412;8.790;2023-04-03T03:10:23;5.33;;;4.77;;
68888;SDS011;55930;47.412;8.790;2023-04-03T03:13:44;6.65;;;5.95;;
68888;SDS011;55930;47.412;8.790;2023-04-03T03:17:04;6.87;;;6.17;;
68888;SDS011;55930;47.412;8.790;2023-04-03T03:20:25;8.73;;;6.43;;
68888;SDS011;55930;47.412;8.790;2023-04-03T03:23:45;6.77;;;5.40;;
68888;SDS011;55930;47.412;8.790;2023-04-03T03:27:06;6.40;;;5.63;;
68888;SDS011;55930;47.412;8.790;2023-04-03T03:30:26;6.80;;;6.03;;
68888;SDS011;55930;47.412;8.790;2023-04-03T03:33:46;9.53;;;6.23;;
68888;SDS011;55930;47.412;8.790;2023-04-03T03:37:08;4.87;;;4.10;;
68888;SDS011;55930;47.412;8.790;2023-04-03T03:40:28;7.72;;;6.93;;
68888;SDS011;55930;47.412;8.790;2023-04-03T03:43:51;10.05;;;6.85;;
68888;SDS011;55930;47.412;8.790;2023-04-03T03:47:11;6.40;;;5.50;;
68888;SDS011;55930;47.412;8.790;2023-04-03T03:50:32;7.87;;;5.37;;
68888;SDS011;55930;47.412;8.790;2023-04-03T03:53:55;8.73;;;6.65;;
68888;SDS011;55930;47.412;8.790;2023-04-03T03:57:16;7.83;;;6.33;;
68888;SDS011;55930;47.412;8.790;2023-04-03T04:00:36;7.67;;;6.00;;
68888;SDS011;55930;47.412;8.790;2023-04-03T04:03:57;8.23;;;6.15;;
68888;SDS011;55930;47.412;8.790;2023-04-03T04:07:18;6.93;;;4.63;;
68888;SDS011;55930;47.412;8.790;2023-04-03T04:10:38;8.93;;;7.87;;
68888;SDS011;55930;47.412;8.790;2023-04-03T04:13:59;7.82;;;7.03;;
68888;SDS011;55930;47.412;8.790;2023-04-03T04:17:20;8.10;;;7.30;;
68888;SDS011;55930;47.412;8.790;2023-04-03T04:20:40;6.97;;;5.40;;
68888;SDS011;55930;47.412;8.790;2023-04-03T04:24:01;7.33;;;6.23;;
68888;SDS011;55930;47.412;8.790;2023-04-03T04:27:21;8.67;;;7.47;;
68888;SDS011;55930;47.412;8.790;2023-04-03T04:34:03;8.77;;;7.22;;
68888;SDS011;55930;47.412;8.790;2023-04-03T04:37:24;7.70;;;6.53;;
68888;SDS011;55930;47.412;8.790;2023-04-03T04:40:45;8.63;;;7.53;;
68888;SDS011;55930;47.412;8.790;2023-04-03T04:44:06;9.33;;;7.10;;
68888;SDS011;55930;47.412;8.790;2023-04-03T04:47:32;9.25;;;7.38;;
68888;SDS011;55930;47.412;8.790;2023-04-03T04:50:53;8.80;;;7.30;;
68888;SDS011;55930;47.412;8.790;2023-04-03T04:57:34;9.60;;;7.67;;
68888;SDS011;55930;47.412;8.790;2023-04-03T05:01:02;9.77;;;7.93;;
68888;SDS011;55930;47.412;8.790;2023-04-03T05:04:24;9.40;;;8.07;;
68888;SDS011;55930;47.412;8.790;2023-04-03T05:07:44;9.67;;;8.67;;
68888;SDS011;55930;47.412;8.790;2023-04-03T05:11:05;8.00;;;6.33;;
68888;SDS011;55930;47.412;8.790;2023-04-03T05:14:26;9.75;;;8.43;;
68888;SDS011;55930;47.412;8.790;2023-04-03T05:17:47;9.50;;;7.30;;
68888;SDS011;55930;47.412;8.790;2023-04-03T05:21:07;8.37;;;7.03;;
68888;SDS011;55930;47.412;8.790;2023-04-03T05:24:27;9.93;;;8.00;;
68888;SDS011;55930;47.412;8.790;2023-04-03T05:27:48;9.50;;;7.10;;
68888;SDS011;55930;47.412;8.790;2023-04-03T05:31:09;8.03;;;7.07;;
68888;SDS011;55930;47.412;8.790;2023-04-03T05:34:29;9.03;;;7.20;;
68888;SDS011;55930;47.412;8.790;2023-04-03T05:37:49;9.80;;;7.67;;
68888;SDS011;55930;47.412;8.790;2023-04-03T05:41:10;8.53;;;7.30;;
68888;SDS011;55930;47.412;8.790;2023-04-03T05:44:31;8.40;;;6.63;;
68888;SDS011;55930;47.412;8.790;2023-04-03T05:47:51;7.93;;;6.73;;
68888;SDS011;55930;47.412;8.790;2023-04-03T05:51:18;8.30;;;6.97;;
68888;SDS011;55930;47.412;8.790;2023-04-03T05:54:45;10.10;;;7.95;;
68888;SDS011;55930;47.412;8.790;2023-04-03T05:58:08;7.72;;;6.78;;
68888;SDS011;55930;47.412;8.790;2023-04-03T06:01:28;8.17;;;6.40;;
68888;SDS011;55930;47.412;8.790;2023-04-03T06:04:48;7.17;;;6.47;;
68888;SDS011;55930;47.412;8.790;2023-04-03T06:08:11;7.53;;;6.77;;
68888;SDS011;55930;47.412;8.790;2023-04-03T06:11:32;12.02;;;7.45;;
68888;SDS011;55930;47.412;8.790;2023-04-03T06:14:53;7.40;;;6.63;;
68888;SDS011;55930;47.412;8.790;2023-04-03T06:18:13;7.47;;;6.13;;
68888;SDS011;55930;47.412;8.790;2023-04-03T06:21:34;7.70;;;6.55;;
68888;SDS011;55930;47.412;8.790;2023-04-03T06:24:56;7.13;;;5.80;;
68888;SDS011;55930;47.412;8.790;2023-04-03T06:28:17;8.02;;;6.90;;
68888;SDS011;55930;47.412;8.790;2023-04-03T06:31:39;8.73;;;6.90;;
68888;SDS011;55930;47.412;8.790;2023-04-03T06:34:59;9.63;;;7.03;;
68888;SDS011;55930;47.412;8.790;2023-04-03T06:38:20;6.30;;;5.43;;
68888;SDS011;55930;47.412;8.790;2023-04-03T06:41:43;8.48;;;6.88;;
68888;SDS011;55930;47.412;8.790;2023-04-03T06:45:04;9.25;;;6.95;;
68888;SDS011;55930;47.412;8.790;2023-04-03T06:48:25;10.25;;;7.13;;
68888;SDS011;55930;47.412;8.790;2023-04-03T06:51:45;8.60;;;6.63;;
68888;SDS011;55930;47.412;8.790;2023-04-03T06:55:06;8.53;;;6.70;;
68888;SDS011;55930;47.412;8.790;2023-04-03T06:58:26;8.65;;;7.03;;
68888;SDS011;55930;47.412;8.790;2023-04-03T07:01:47;8.27;;;6.80;;
68888;SDS011;55930;47.412;8.790;2023-04-03T07:05:08;6.70;;;6.00;;
68888;SDS011;55930;47.412;8.790;2023-04-03T07:08:29;8.77;;;6.50;;
68888;SDS011;55930;47.412;8.790;2023-04-03T07:11:50;6.87;;;5.53;;
68888;SDS011;55930;47.412;8.790;2023-04-03T07:15:10;11.83;;;5.77;;
68888;SDS011;55930;47.412;8.790;2023-04-03T07:18:32;5.95;;;5.35;;
68888;SDS011;55930;47.412;8.790;2023-04-03T07:21:53;8.10;;;6.33;;
68888;SDS011;55930;47.412;8.790;2023-04-03T07:25:14;7.50;;;5.13;;
68888;SDS011;55930;47.412;8.790;2023-04-03T07:28:37;8.33;;;6.10;;
68888;SDS011;55930;47.412;8.790;2023-04-03T07:32:00;7.97;;;5.70;;
68888;SDS011;55930;47.412;8.790;2023-04-03T07:35:21;6.43;;;5.75;;
68888;SDS011;55930;47.412;8.790;2023-04-03T07:38:42;5.75;;;5.15;;
68888;SDS011;55930;47.412;8.790;2023-04-03T07:42:02;7.07;;;6.37;;
68888;SDS011;55930;47.412;8.790;2023-04-03T07:45:23;8.57;;;5.90;;
68888;SDS011;55930;47.412;8.790;2023-04-03T07:48:43;8.37;;;6.07;;
68888;SDS011;55930;47.412;8.790;2023-04-03T07:52:05;8.07;;;6.05;;
68888;SDS011;55930;47.412;8.790;2023-04-03T07:55:27;7.00;;;5.30;;
68888;SDS011;55930;47.412;8.790;2023-04-03T07:58:47;5.77;;;4.70;;
68888;SDS011;55930;47.412;8.790;2023-04-03T08:02:11;6.03;;;4.97;;
68888;SDS011;55930;47.412;8.790;2023-04-03T08:05:35;6.55;;;5.40;;
68888;SDS011;55930;47.412;8.790;2023-04-03T08:08:57;5.45;;;4.65;;
68888;SDS011;55930;47.412;8.790;2023-04-03T08:12:18;5.78;;;5.18;;
68888;SDS011;55930;47.412;8.790;2023-04-03T08:15:39;5.43;;;4.23;;
68888;SDS011;55930;47.412;8.790;2023-04-03T08:19:00;8.43;;;5.43;;
68888;SDS011;55930;47.412;8.790;2023-04-03T08:22:20;6.97;;;4.97;;
68888;SDS011;55930;47.412;8.790;2023-04-03T08:25:41;5.77;;;5.07;;
68888;SDS011;55930;47.412;8.790;2023-04-03T08:29:02;5.47;;;4.88;;
68888;SDS011;55930;47.412;8.790;2023-04-03T08:32:24;9.02;;;5.18;;
68888;SDS011;55930;47.412;8.790;2023-04-03T08:35:44;7.67;;;4.83;;
68888;SDS011;55930;47.412;8.790;2023-04-03T08:39:04;5.03;;;4.53;;
68888;SDS011;55930;47.412;8.790;2023-04-03T08:50:45;5.85;;;4.68;;
68888;SDS011;55930;47.412;8.790;2023-04-03T08:54:19;6.82;;;5.20;;
68888;SDS011;55930;47.412;8.790;2023-04-03T08:57:45;6.90;;;5.45;;
68888;SDS011;55930;47.412;8.790;2023-04-03T09:04:43;6.38;;;4.90;;
68888;SDS011;55930;47.412;8.790;2023-04-03T09:08:11;5.40;;;4.50;;
68888;SDS011;55930;47.412;8.790;2023-04-03T09:15:17;6.35;;;4.30;;
68888;SDS011;55930;47.412;8.790;2023-04-03T09:18:42;5.25;;;4.57;;
68888;SDS011;55930;47.412;8.790;2023-04-03T09:22:23;6.93;;;4.13;;
68888;SDS011;55930;47.412;8.790;2023-04-03T09:25:45;5.97;;;5.15;;
68888;SDS011;55930;47.412;8.790;2023-04-03T09:29:06;5.77;;;4.90;;
68888;SDS011;55930;47.412;8.790;2023-04-03T09:32:28;7.50;;;5.07;;
68888;SDS011;55930;47.412;8.790;2023-04-03T09:35:51;7.03;;;5.47;;
68888;SDS011;55930;47.412;8.790;2023-04-03T09:39:16;5.60;;;5.00;;
68888;SDS011;55930;47.412;8.790;2023-04-03T09:42:39;6.63;;;5.15;;
68888;SDS011;55930;47.412;8.790;2023-04-03T09:46:20;6.10;;;5.30;;
68888;SDS011;55930;47.412;8.790;2023-04-03T09:50:31;5.28;;;3.85;;
68888;SDS011;55930;47.412;8.790;2023-04-03T09:53:44;6.18;;;4.82;;
68888;SDS011;55930;47.412;8.790;2023-04-03T09:57:12;6.50;;;5.30;;
68888;SDS011;55930;47.412;8.790;2023-04-03T10:00:35;7.40;;;5.30;;
68888;SDS011;55930;47.412;8.790;2023-04-03T10:07:37;6.50;;;4.93;;
68888;SDS011;55930;47.412;8.790;2023-04-03T10:11:08;6.28;;;5.47;;
68888;SDS011;55930;47.412;8.790;2023-04-03T10:14:30;6.45;;;5.28;;
68888;SDS011;55930;47.412;8.790;2023-04-03T10:17:58;6.10;;;5.43;;
68888;SDS011;55930;47.412;8.790;2023-04-03T10:21:55;5.93;;;4.60;;
68888;SDS011;55930;47.412;8.790;2023-04-03T10:25:22;6.18;;;5.43;;
68888;SDS011;55930;47.412;8.790;2023-04-03T10:28:50;5.70;;;4.72;;
68888;SDS011;55930;47.412;8.790;2023-04-03T10:32:37;6.15;;;4.57;;
68888;SDS011;55930;47.412;8.790;2023-04-03T10:43:24;6.45;;;5.10;;
68888;SDS011;55930;47.412;8.790;2023-04-03T10:46:55;7.07;;;5.55;;
68888;SDS011;55930;47.412;8.790;2023-04-03T10:54:25;7.68;;;5.93;;
68888;SDS011;55930;47.412;8.790;2023-04-03T10:57:55;5.43;;;4.68;;
68888;SDS011;55930;47.412;8.790;2023-04-03T11:01:19;7.53;;;5.57;;
68888;SDS011;55930;47.412;8.790;2023-04-03T11:04:43;5.93;;;5.28;;
68888;SDS011;55930;47.412;8.790;2023-04-03T11:08:10;7.07;;;5.50;;
68888;SDS011;55930;47.412;8.790;2023-04-03T11:11:34;5.78;;;4.80;;
68888;SDS011;55930;47.412;8.790;2023-04-03T11:14:57;6.03;;;5.28;;
68888;SDS011;55930;47.412;8.790;2023-04-03T11:18:21;5.95;;;5.35;;
68888;SDS011;55930;47.412;8.790;2023-04-03T11:21:54;6.88;;;5.90;;
68888;SDS011;55930;47.412;8.790;2023-04-03T11:25:24;8.02;;;5.53;;
68888;SDS011;55930;47.412;8.790;2023-04-03T11:28:46;6.25;;;5.10;;
68888;SDS011;55930;47.412;8.790;2023-04-03T11:35:30;8.50;;;6.38;;
68888;SDS011;55930;47.412;8.790;2023-04-03T11:38:54;6.88;;;5.82;;
68888;SDS011;55930;47.412;8.790;2023-04-03T11:46:16;5.10;;;4.60;;
68888;SDS011;55930;47.412;8.790;2023-04-03T11:53:31;7.43;;;5.32;;
68888;SDS011;55930;47.412;8.790;2023-04-03T11:56:52;8.98;;;5.55;;
68888;SDS011;55930;47.412;8.790;2023-04-03T12:04:13;6.60;;;5.00;;
68888;SDS011;55930;47.412;8.790;2023-04-03T12:07:35;8.95;;;5.55;;
68888;SDS011;55930;47.412;8.790;2023-04-03T12:14:28;5.45;;;4.88;;
68888;SDS011;55930;47.412;8.790;2023-04-03T12:17:49;7.55;;;5.05;;
68888;SDS011;55930;47.412;8.790;2023-04-03T12:27:55;6.50;;;5.30;;
68888;SDS011;55930;47.412;8.790;2023-04-03T12:31:16;6.85;;;4.65;;
68888;SDS011;55930;47.412;8.790;2023-04-03T12:38:54;6.18;;;5.20;;
68888;SDS011;55930;47.412;8.790;2023-04-03T12:52:55;4.78;;;3.67;;
68888;SDS011;55930;47.412;8.790;2023-04-03T13:00:19;6.47;;;5.07;;
68888;SDS011;55930;47.412;8.790;2023-04-03T13:03:47;5.50;;;5.00;;
68888;SDS011;55930;47.412;8.790;2023-04-03T13:07:20;11.15;;;7.10;;
68888;SDS011;55930;47.412;8.790;2023-04-03T13:10:47;5.45;;;4.95;;
68888;SDS011;55930;47.412;8.790;2023-04-03T13:14:22;6.28;;;4.63;;
68888;SDS011;55930;47.412;8.790;2023-04-03T13:17:45;5.55;;;4.90;;
68888;SDS011;55930;47.412;8.790;2023-04-03T13:21:07;8.53;;;4.13;;
68888;SDS011;55930;47.412;8.790;2023-04-03T13:24:36;5.53;;;4.68;;
68888;SDS011;55930;47.412;8.790;2023-04-03T13:27:59;8.05;;;4.82;;
68888;SDS011;55930;47.412;8.790;2023-04-03T13:31:23;4.63;;;4.13;;
68888;SDS011;55930;47.412;8.790;2023-04-03T13:34:56;5.30;;;4.43;;
68888;SDS011;55930;47.412;8.790;2023-04-03T13:41:38;7.90;;;5.07;;
68888;SDS011;55930;47.412;8.790;2023-04-03T13:48:36;5.10;;;4.00;;
68888;SDS011;55930;47.412;8.790;2023-04-03T13:51:58;4.18;;;3.78;;
68888;SDS011;55930;47.412;8.790;2023-04-03T13:55:21;6.07;;;4.30;;
68888;SDS011;55930;47.412;8.790;2023-04-03T13:58:51;4.40;;;4.00;;
68888;SDS011;55930;47.412;8.790;2023-04-03T14:02:38;5.32;;;4.30;;
68888;SDS011;55930;47.412;8.790;2023-04-03T14:05:59;4.90;;;3.83;;
68888;SDS011;55930;47.412;8.790;2023-04-03T14:09:25;5.43;;;4.05;;
68888;SDS011;55930;47.412;8.790;2023-04-03T14:12:47;4.60;;;4.10;;
68888;SDS011;55930;47.412;8.790;2023-04-03T14:16:21;5.68;;;3.55;;
68888;SDS011;55930;47.412;8.790;2023-04-03T14:19:44;5.90;;;3.83;;
68888;SDS011;55930;47.412;8.790;2023-04-03T14:23:05;6.18;;;4.07;;
68888;SDS011;55930;47.412;8.790;2023-04-03T14:26:28;4.88;;;4.00;;
68888;SDS011;55930;47.412;8.790;2023-04-03T14:29:50;5.68;;;3.60;;
68888;SDS011;55930;47.412;8.790;2023-04-03T14:33:14;4.57;;;3.70;;
68888;SDS011;55930;47.412;8.790;2023-04-03T14:36:35;5.57;;;4.05;;
68888;SDS011;55930;47.412;8.790;2023-04-03T14:39:57;6.17;;;3.37;;
68888;SDS011;55930;47.412;8.790;2023-04-03T14:43:18;5.07;;;3.65;;
68888;SDS011;55930;47.412;8.790;2023-04-03T14:46:41;5.13;;;3.83;;
68888;SDS011;55930;47.412;8.790;2023-04-03T14:50:03;4.90;;;3.35;;
68888;SDS011;55930;47.412;8.790;2023-04-03T14:53:27;4.80;;;3.78;;
68888;SDS011;55930;47.412;8.790;2023-04-03T14:56:52;4.70;;;3.63;;
68888;SDS011;55930;47.412;8.790;2023-04-03T15:00:15;5.05;;;3.97;;
68888;SDS011;55930;47.412;8.790;2023-04-03T15:03:40;3.60;;;3.15;;
68888;SDS011;55930;47.412;8.790;2023-04-03T15:07:01;5.13;;;3.37;;
68888;SDS011;55930;47.412;8.790;2023-04-03T15:10:26;4.67;;;3.60;;
68888;SDS011;55930;47.412;8.790;2023-04-03T15:13:48;5.38;;;3.63;;
68888;SDS011;55930;47.412;8.790;2023-04-03T15:17:11;4.60;;;3.10;;
68888;SDS011;55930;47.412;8.790;2023-04-03T15:20:35;6.22;;;4.25;;
68888;SDS011;55930;47.412;8.790;2023-04-03T15:23:56;4.93;;;4.43;;
68888;SDS011;55930;47.412;8.790;2023-04-03T15:27:16;4.30;;;3.50;;
68888;SDS011;55930;47.412;8.790;2023-04-03T15:30:37;6.43;;;4.13;;
68888;SDS011;55930;47.412;8.790;2023-04-03T15:33:59;5.50;;;4.15;;
68888;SDS011;55930;47.412;8.790;2023-04-03T15:37:20;9.17;;;4.60;;
68888;SDS011;55930;47.412;8.790;2023-04-03T15:40:40;4.83;;;3.30;;
68888;SDS011;55930;47.412;8.790;2023-04-03T15:44:02;4.57;;;3.63;;
68888;SDS011;55930;47.412;8.790;2023-04-03T15:47:23;5.73;;;4.20;;
68888;SDS011;55930;47.412;8.790;2023-04-03T15:50:44;5.07;;;3.70;;
68888;SDS011;55930;47.412;8.790;2023-04-03T15:54:05;5.37;;;3.07;;
68888;SDS011;55930;47.412;8.790;2023-04-03T15:57:25;5.80;;;4.23;;
68888;SDS011;55930;47.412;8.790;2023-04-03T16:00:46;5.47;;;3.65;;
68888;SDS011;55930;47.412;8.790;2023-04-03T16:04:07;5.73;;;4.40;;
68888;SDS011;55930;47.412;8.790;2023-04-03T16:07:29;5.53;;;4.80;;
68888;SDS011;55930;47.412;8.790;2023-04-03T16:10:50;7.18;;;4.47;;
68888;SDS011;55930;47.412;8.790;2023-04-03T16:14:10;13.47;;;6.00;;
68888;SDS011;55930;47.412;8.790;2023-04-03T16:17:32;10.20;;;5.73;;
68888;SDS011;55930;47.412;8.790;2023-04-03T16:20:53;7.70;;;4.97;;
68888;SDS011;55930;47.412;8.790;2023-04-03T16:24:14;6.93;;;4.33;;
68888;SDS011;55930;47.412;8.790;2023-04-03T16:27:34;5.90;;;4.40;;
68888;SDS011;55930;47.412;8.790;2023-04-03T16:30:55;9.10;;;5.37;;
68888;SDS011;55930;47.412;8.790;2023-04-03T16:34:15;4.47;;;3.67;;
68888;SDS011;55930;47.412;8.790;2023-04-03T16:37:36;7.23;;;4.53;;
68888;SDS011;55930;47.412;8.790;2023-04-03T16:40:57;7.80;;;4.93;;
68888;SDS011;55930;47.412;8.790;2023-04-03T16:44:19;5.88;;;4.70;;
68888;SDS011;55930;47.412;8.790;2023-04-03T16:47:39;6.47;;;3.97;;
68888;SDS011;55930;47.412;8.790;2023-04-03T16:51:00;5.93;;;4.37;;
68888;SDS011;55930;47.412;8.790;2023-04-03T16:54:20;6.53;;;4.93;;
68888;SDS011;55930;47.412;8.790;2023-04-03T16:57:41;7.23;;;4.60;;
68888;SDS011;55930;47.412;8.790;2023-04-03T17:01:08;6.63;;;4.33;;
68888;SDS011;55930;47.412;8.790;2023-04-03T17:04:30;5.47;;;4.20;;
68888;SDS011;55930;47.412;8.790;2023-04-03T17:07:51;6.63;;;4.63;;
68888;SDS011;55930;47.412;8.790;2023-04-03T17:11:11;8.53;;;4.13;;
68888;SDS011;55930;47.412;8.790;2023-04-03T17:14:32;7.33;;;4.03;;
68888;SDS011;55930;47.412;8.790;2023-04-03T17:17:52;7.13;;;4.73;;
68888;SDS011;55930;47.412;8.790;2023-04-03T17:21:13;7.90;;;4.70;;
68888;SDS011;55930;47.412;8.790;2023-04-03T17:24:35;8.95;;;4.95;;
68888;SDS011;55930;47.412;8.790;2023-04-03T17:27:56;9.63;;;5.37;;
68888;SDS011;55930;47.412;8.790;2023-04-03T17:31:16;6.47;;;4.20;;
68888;SDS011;55930;47.412;8.790;2023-04-03T17:34:36;7.73;;;4.37;;
68888;SDS011;55930;47.412;8.790;2023-04-03T17:37:57;9.32;;;5.30;;
68888;SDS011;55930;47.412;8.790;2023-04-03T17:41:18;9.33;;;5.13;;
68888;SDS011;55930;47.412;8.790;2023-04-03T17:44:38;7.67;;;4.80;;
68888;SDS011;55930;47.412;8.790;2023-04-03T17:47:59;9.43;;;6.03;;
68888;SDS011;55930;47.412;8.790;2023-04-03T17:51:22;6.57;;;4.97;;
68888;SDS011;55930;47.412;8.790;2023-04-03T17:54:43;8.00;;;4.30;;
68888;SDS011;55930;47.412;8.790;2023-04-03T17:58:04;7.30;;;5.05;;
68888;SDS011;55930;47.412;8.790;2023-04-03T18:01:27;6.90;;;5.10;;
68888;SDS011;55930;47.412;8.790;2023-04-03T18:04:50;6.00;;;4.55;;
68888;SDS011;55930;47.412;8.790;2023-04-03T18:08:12;9.45;;;6.53;;
68888;SDS011;55930;47.412;8.790;2023-04-03T18:11:33;5.95;;;4.63;;
68888;SDS011;55930;47.412;8.790;2023-04-03T18:14:54;6.57;;;4.43;;
68888;SDS011;55930;47.412;8.790;2023-04-03T18:18:14;5.90;;;4.77;;
68888;SDS011;55930;47.412;8.790;2023-04-03T18:21:35;5.40;;;4.07;;
68888;SDS011;55930;47.412;8.790;2023-04-03T18:24:56;4.90;;;4.03;;
68888;SDS011;55930;47.412;8.790;2023-04-03T18:31:38;5.43;;;3.95;;
68888;SDS011;55930;47.412;8.790;2023-04-03T18:35:03;6.75;;;3.95;;
68888;SDS011;55930;47.412;8.790;2023-04-03T18:38:24;6.13;;;4.25;;
68888;SDS011;55930;47.412;8.790;2023-04-03T18:41:44;5.33;;;4.03;;
68888;SDS011;55930;47.412;8.790;2023-04-03T18:45:05;5.45;;;4.57;;
68888;SDS011;55930;47.412;8.790;2023-04-03T18:48:29;7.78;;;4.43;;
68888;SDS011;55930;47.412;8.790;2023-04-03T18:51:51;8.05;;;4.55;;
68888;SDS011;55930;47.412;8.790;2023-04-03T18:55:14;5.50;;;4.17;;
68888;SDS011;55930;47.412;8.790;2023-04-03T18:58:38;4.65;;;3.67;;
68888;SDS011;55930;47.412;8.790;2023-04-03T19:01:58;6.17;;;3.97;;
68888;SDS011;55930;47.412;8.790;2023-04-03T19:05:21;8.80;;;4.40;;
68888;SDS011;55930;47.412;8.790;2023-04-03T19:08:42;4.75;;;3.97;;
68888;SDS011;55930;47.412;8.790;2023-04-03T19:12:03;5.53;;;4.00;;
68888;SDS011;55930;47.412;8.790;2023-04-03T19:15:24;5.35;;;4.47;;
68888;SDS011;55930;47.412;8.790;2023-04-03T19:18:45;7.10;;;4.10;;
68888;SDS011;55930;47.412;8.790;2023-04-03T19:22:06;6.23;;;4.10;;
68888;SDS011;55930;47.412;8.790;2023-04-03T19:25:26;4.03;;;3.53;;
68888;SDS011;55930;47.412;8.790;2023-04-03T19:28:47;5.50;;;3.80;;
68888;SDS011;55930;47.412;8.790;2023-04-03T19:32:09;5.63;;;3.20;;
68888;SDS011;55930;47.412;8.790;2023-04-03T19:35:30;4.10;;;2.90;;
68888;SDS011;55930;47.412;8.790;2023-04-03T19:38:50;6.37;;;3.23;;
68888;SDS011;55930;47.412;8.790;2023-04-03T19:42:13;3.97;;;2.95;;
68888;SDS011;55930;47.412;8.790;2023-04-03T19:45:34;4.93;;;3.10;;
68888;SDS011;55930;47.412;8.790;2023-04-03T19:48:54;4.27;;;3.30;;
68888;SDS011;55930;47.412;8.790;2023-04-03T19:52:15;3.65;;;2.85;;
68888;SDS011;55930;47.412;8.790;2023-04-03T19:55:36;6.00;;;2.83;;
68888;SDS011;55930;47.412;8.790;2023-04-03T19:58:57;5.83;;;3.50;;
68888;SDS011;55930;47.412;8.790;2023-04-03T20:02:17;4.27;;;2.87;;
68888;SDS011;55930;47.412;8.790;2023-04-03T20:05:40;5.38;;;3.17;;
68888;SDS011;55930;47.412;8.790;2023-04-03T20:09:00;4.70;;;3.17;;
68888;SDS011;55930;47.412;8.790;2023-04-03T20:12:21;8.83;;;4.03;;
68888;SDS011;55930;47.412;8.790;2023-04-03T20:15:42;5.40;;;2.90;;
68888;SDS011;55930;47.412;8.790;2023-04-03T20:19:03;5.10;;;3.10;;
68888;SDS011;55930;47.412;8.790;2023-04-03T20:22:25;4.22;;;2.88;;
68888;SDS011;55930;47.412;8.790;2023-04-03T20:25:45;5.80;;;2.90;;
68888;SDS011;55930;47.412;8.790;2023-04-03T20:29:07;6.63;;;3.00;;
68888;SDS011;55930;47.412;8.790;2023-04-03T20:32:29;5.93;;;3.60;;
68888;SDS011;55930;47.412;8.790;2023-04-03T20:35:50;5.63;;;3.22;;
68888;SDS011;55930;47.412;8.790;2023-04-03T20:39:13;5.85;;;3.47;;
68888;SDS011;55930;47.412;8.790;2023-04-03T20:42:33;5.50;;;2.72;;
68888;SDS011;55930;47.412;8.790;2023-04-03T20:45:54;5.63;;;2.57;;
68888;SDS011;55930;47.412;8.790;2023-04-03T20:49:18;5.07;;;2.80;;
68888;SDS011;55930;47.412;8.790;2023-04-03T20:52:41;5.10;;;2.50;;
68888;SDS011;55930;47.412;8.790;2023-04-03T20:56:01;5.47;;;2.90;;
68888;SDS011;55930;47.412;8.790;2023-04-03T20:59:23;4.78;;;2.88;;
68888;SDS011;55930;47.412;8.790;2023-04-03T21:02:50;4.10;;;2.20;;
68888;SDS011;55930;47.412;8.790;2023-04-03T21:21:28;9.37;;;2.50;;
68888;SDS011;55930;47.412;8.790;2023-04-03T21:24:50;2.85;;;2.00;;
68888;SDS011;55930;47.412;8.790;2023-04-03T21:28:11;4.73;;;3.00;;
68888;SDS011;55930;47.412;8.790;2023-04-03T21:35:17;4.75;;;2.65;;
68888;SDS011;55930;47.412;8.790;2023-04-03T21:38:38;4.50;;;2.80;;
68888;SDS011;55930;47.412;8.790;2023-04-03T21:41:58;4.60;;;2.63;;
68888;SDS011;55930;47.412;8.790;2023-04-03T21:45:19;4.60;;;2.40;;
68888;SDS011;55930;47.412;8.790;2023-04-03T21:48:39;4.90;;;3.00;;
68888;SDS011;55930;47.412;8.790;2023-04-03T21:52:00;7.80;;;2.87;;
68888;SDS011;55930;47.412;8.790;2023-04-03T21:55:20;5.83;;;2.50;;
68888;SDS011;55930;47.412;8.790;2023-04-03T21:58:41;4.93;;;2.47;;
68888;SDS011;55930;47.412;8.790;2023-04-03T22:02:01;6.00;;;2.90;;
68888;SDS011;55930;47.412;8.790;2023-04-03T22:05:22;3.87;;;2.27;;
68888;SDS011;55930;47.412;8.790;2023-04-03T22:08:43;3.93;;;2.50;;
68888;SDS011;55930;47.412;8.790;2023-04-03T22:12:03;5.45;;;2.63;;
68888;SDS011;55930;47.412;8.790;2023-04-03T22:15:27;4.75;;;2.40;;